默认 日期 大小 文件数 浏览量 最新下载 xml
2 guns磁力链接相关资源由用户搜索指令自动获取,结果来源于网络,本站不存储任何资料,亦不承担任何责任,请于24小时内删除,搜索到888个磁力,用时55ms。
    {"subs": {"2.guns.bdrip-no1.srt": 102838}, "sample": {"sample.mkv": 11327381}, "2.guns.bdrip-no1.mkv": 1735178257, "2.guns.bdrip-no1.nfo": 17254, "2.guns.bdrip-no1.srt": 250}
创建时间: 2024-11-26 09:13:17 大小:1.63 GB 文件数量:5 热度:2 最近下载:2025-01-27 04:07:05
    ... ": {"2 Guns_t01.mkv": 1617471409, "2 Guns_t02.mkv": 307510381, "2 Guns_t03.mkv": 4170289233, "2 Guns_t04 ... .jpg": 141846, "subtitles.rar": 1389008, "2 Guns (2013)-alE13.mkv": 28384097822}
创建时间: 2024-12-04 16:10:59 大小:36.68 GB 文件数量:24 热度:2 最近下载:2025-01-19 02:15:03
    {"Torrent Downloaded From www.Torrenting.org .txt": 86, "2 Guns 2013 NORDiC 1080p WEB-DL H 265 DD5 1-CiNEMiX.mkv": 2255297574, "2 Guns 2013 NORDiC 1080p WEB-DL H 265 DD5 1-CiNEMiX.mkv.nfo": 4897}
创建时间: 2024-12-18 18:28:54 大小:2.1 GB 文件数量:3 热度:2 最近下载:2025-02-15 18:24:02
    {"2.Guns.2013.1080p.BluRay.x265.10bit. ...
创建时间: 2024-12-19 09:16:47 大小:6.66 GB 文件数量:4 热度:28 最近下载:2025-10-09 23:18:01
    {"2 Guns 2013 1080p BluRay x264-OFT.mkv": 5087304384, "2 Guns 2013 1080p BluRay x264-OFT.mkv.nfo": 5765, "Torrent Downloaded From www.Torrenting.org .txt": 86}
创建时间: 2024-12-30 18:23:50 大小:4.74 GB 文件数量:3 热度:5 最近下载:2025-08-01 08:08:10
    {"2.Guns.txt": 242, "2.Guns.1080p.BrRip.x264-YIFY.avi": 736049380}
创建时间: 2025-01-01 19:08:23 大小:701.95 MB 文件数量:2 热度:2 最近下载:2025-01-15 17:35:13
    {"FLiCKSiCK.nfo": 3460, "2 Guns 2013 Blu-Ray 720p FLiCKSiCK_SAMPLE.mp4": 9927616, "2 Guns 2013 Blu-Ray 720p x264 DD5.1 FLiCKSiCK.mp4": 1691980654, "2 Guns 2013 Blu-Ray 720p x264 DD5.1 FLiCKSiCK.srt": 117119}
创建时间: 2025-01-11 11:56:20 大小:1.59 GB 文件数量:4 热度:3 最近下载:2025-03-06 16:58:04
    {"SAMP.avi": 10645616, "2G 2013 CR-INF.avi": 1062381242, "www.Torrenting.com.txt": 575, "First Read This Guide.txt": 575}
创建时间: 2025-01-12 08:29:52 大小:1023.32 MB 文件数量:4 热度:4 最近下载:2025-03-08 11:30:01
    {"2.guns.2013.1080P-Dual-Lat.mp4": 1732966950, "Descargar Películas, Series y Animes Gratis....url": 50}
创建时间: 2025-02-10 19:11:23 大小:1.61 GB 文件数量:2 热度:2 最近下载:2025-03-09 00:39:03
    ... "2 guns 1080 encode 1.png": 1745181, "2 guns 1080 encode 2.png": 745741, "2 guns ... "2 guns 1080 source 1.png": 2239522, "2 guns 1080 source 2.png": 1671825, "2 guns 1080 ... source 3.png": 1989981, "2 guns 1080 ...
创建时间: 2025-02-19 11:09:01 大小:10.45 GB 文件数量:35 热度:2 最近下载:2025-03-08 21:53:02
    {"Torrent Downloaded From www.SceneTime.com .txt": 76, "2 Guns 2013 1080p BluRay DDP 5 1 10bit H 265-iVy.mkv": 4116534120, "2 Guns 2013 1080p BluRay DDP 5 1 10bit H 265-iVy.mkv.nfo": 28142}
创建时间: 2025-02-25 13:50:41 大小:3.83 GB 文件数量:3 热度:2 最近下载:2025-03-09 18:58:05
    {"1.jpeg": 64234, "2.jpeg": 70107, "3.jpeg": 121575, "4.jpeg": 85264, "sample.mp4": 19893066, "RARBG.com.txt": 34, "2-guns-poster.jpg": 84180, "2.Guns.2013.720P.BRRIP.H264.AAC-MAJESTiC.mp4": 2518897600, "2.Guns.2013.720P.BRRIP.H264.AAC-MAJESTiC.nfo": 1595}
创建时间: 2025-03-03 10:32:08 大小:2.36 GB 文件数量:9 热度:2 最近下载:2025-03-07 04:15:01
    {"2 Guns 2013 MULTi 1080p WEB H265-FW.mkv": 3126054240, "2 Guns 2013 MULTi 1080p WEB H265-FW.nzb": 1097595, "2 Guns 2013 MULTi 1080p WEB H265-FW.mkv.nfo": 9244, "Torrent Downloaded From UIndex.org .txt": 129}
创建时间: 2025-03-18 16:22:04 大小:2.91 GB 文件数量:4 热度:1 最近下载:2025-03-19 20:18:03
    {"AUDIO_TS": {"": 0}, "VIDEO_TS": {"VIDEO_TS.BUP": 12288, "VIDEO_TS.IFO": 12288, "VIDEO_TS.VOB": 59392, "VTS_01_0.BUP": 77824, "VTS_01_0.IFO": 77824, "VTS_01_0.VOB": 59392, "VTS_01_1.VOB": 1073709056, "VTS_01_2.VOB": 1073709056, "VTS_01_3.VOB": 1073709056, ...
创建时间: 2025-03-23 08:39:48 大小:5.3 GB 文件数量:27 热度:1 最近下载:2025-03-23 20:13:02
    ... mp4_snapshot_00.06.05.png": 902968, "2 Guns 2013 720p BRRip x264 MP4 ... mp4_snapshot_00.25.57.png": 1114502, "2 Guns 2013 720p BRRip x264 MP4 ... .46.21.png": 953367, "2 Guns 2013 720p BRRip x264 MP4 ... .06.03.png": 981632, "2 Guns 2013 720p BRRip x264 MP4 ...
创建时间: 2025-03-23 12:34:14 大小:2.68 GB 文件数量:34 热度:2 最近下载:2025-05-06 04:51:01
    ... www.Torrenting.com .txt": 206, "2 Guns 2013 1080p BluRay REMUX AVC ... 5 1-UnKn0wn.jpg": 494348, "2 Guns 2013 1080p BluRay REMUX AVC ... 5 1-UnKn0wn.mkv": 19312932401, "2 Guns 2013 1080p BluRay REMUX AVC ...
创建时间: 2025-03-25 10:25:28 大小:17.99 GB 文件数量:4 热度:3 最近下载:2025-04-03 13:02:02
    {"readme.zip": 146786, " 2 Guns (2013) DVDRip XviD-MAXSPEED.avi": 760559436}
创建时间: 2025-03-26 12:16:09 大小:725.47 MB 文件数量:2 热度:1 最近下载:2025-03-26 21:45:03
    ... 7971, "readme.txt": 8027, "2.Guns.EXTRAS.ReLeNTLesS": {"2.Guns.EXTRAS.Deleted.Scenes.Saddle ... .Heights.ReLeNTLesS.avi": 17160050, "2.Guns.EXTRAS.Deleted.Scenes.Wheres.Your ... .avi": 12109702}, "2.Guns.ReLeNTLesS.Sample.avi": 23209828, "2.Guns.2013.WEBRip.XViD ...
创建时间: 2025-04-16 15:26:00 大小:1.35 GB 文件数量:13 热度:3 最近下载:2025-04-19 17:03:02
    {"2 Guns (2013) SUBBED PPVRip XViD MP3 - Exclusive.avi": 1715648548}
创建时间: 2025-04-19 15:15:40 大小:1.6 GB 文件数量:1 热度:1 最近下载:2025-04-20 23:37:01
    ... , "2.Guns.2013.WEBrip.264.AAC-MiLLENiUM.txt": 4041, "2.Guns.2013.WEBrip ... 10878055, "2.Guns.2013.WEBrip.264.AAC-MiLLENiUM_track4_eng.srt": 124554, "2.Guns.2013.WEBrip ... .264.AAC-MiLLENiUM_track5_eng.srt": 129618, "2.Guns.2013.WEBrip ...
创建时间: 2025-04-25 13:39:40 大小:1.31 GB 文件数量:12 热度:1 最近下载:2025-04-27 01:13:01